createdAt,value
2022-08-12T00:01:26.935Z,18.87
2022-08-12T00:04:52.071Z,18.82
2022-08-12T00:07:59.430Z,18.86
2022-08-12T00:11:09.792Z,18.81
2022-08-12T00:14:18.304Z,18.70
2022-08-12T00:17:24.597Z,18.59
2022-08-12T00:20:30.215Z,18.61
2022-08-12T00:23:39.419Z,18.61
2022-08-12T00:26:45.781Z,18.58
2022-08-12T00:29:52.791Z,18.62
2022-08-12T00:32:59.305Z,18.49
2022-08-12T00:36:32.118Z,18.44
2022-08-12T00:39:37.521Z,18.36
2022-08-12T00:42:25.761Z,18.38
2022-08-12T00:45:12.799Z,18.29
2022-08-12T00:47:59.863Z,18.31
2022-08-12T00:50:49.985Z,18.27
2022-08-12T00:53:38.046Z,18.28
2022-08-12T00:56:27.878Z,18.17
2022-08-12T00:59:16.034Z,18.27
2022-08-12T01:02:12.287Z,18.17
2022-08-12T01:05:39.681Z,18.12
2022-08-12T01:08:49.628Z,18.02
2022-08-12T01:11:37.002Z,17.95
2022-08-12T01:14:25.203Z,17.85
2022-08-12T01:17:13.002Z,17.82
2022-08-12T01:20:07.081Z,17.74
2022-08-12T01:23:27.398Z,17.73
2022-08-12T01:26:21.255Z,17.74
2022-08-12T01:29:13.063Z,17.71
2022-08-12T01:32:08.975Z,17.70
2022-08-12T01:35:14.645Z,17.79
2022-08-12T01:38:05.923Z,17.74
2022-08-12T01:40:58.028Z,17.68
2022-08-12T01:43:46.161Z,17.77
2022-08-12T01:46:52.413Z,17.69
2022-08-12T01:49:39.746Z,17.78
2022-08-12T01:52:39.015Z,18.00
2022-08-12T01:55:33.548Z,17.90
2022-08-12T01:58:57.265Z,17.82
2022-08-12T02:01:47.830Z,17.66
2022-08-12T02:05:10.309Z,17.50
2022-08-12T02:08:37.747Z,17.41
2022-08-12T02:11:31.839Z,17.29
2022-08-12T02:14:40.580Z,17.20
2022-08-12T02:18:00.194Z,17.14
2022-08-12T02:21:00.550Z,17.23
2022-08-12T02:23:49.287Z,17.14
2022-08-12T02:26:40.195Z,16.96
2022-08-12T02:29:27.494Z,16.91
2022-08-12T02:32:15.347Z,16.85
2022-08-12T02:35:02.950Z,16.74
2022-08-12T02:37:55.858Z,16.75
2022-08-12T02:40:44.809Z,16.74
2022-08-12T02:43:55.802Z,16.71
2022-08-12T02:46:49.154Z,16.61
2022-08-12T02:49:44.874Z,16.54
2022-08-12T02:52:34.540Z,16.61
2022-08-12T02:55:28.263Z,16.51
2022-08-12T02:58:21.387Z,16.48
2022-08-12T03:01:25.096Z,16.46
2022-08-12T03:04:30.399Z,16.34
2022-08-12T03:07:32.680Z,16.36
2022-08-12T03:10:41.532Z,16.34
2022-08-12T03:13:39.067Z,16.28
2022-08-12T03:16:30.211Z,16.28
2022-08-12T03:19:21.127Z,16.19
2022-08-12T03:22:14.615Z,16.15
2022-08-12T03:25:05.560Z,16.14
2022-08-12T03:27:58.301Z,16.11
2022-08-12T03:30:49.971Z,16.08
2022-08-12T03:33:48.194Z,16.04
2022-08-12T03:36:48.798Z,16.01
2022-08-12T03:39:38.887Z,15.98
2022-08-12T03:42:40.925Z,15.95
2022-08-12T03:45:51.950Z,15.85
2022-08-12T03:49:01.492Z,15.89
2022-08-12T03:52:07.072Z,15.86
2022-08-12T03:55:13.034Z,15.81
2022-08-12T03:58:21.023Z,15.79
2022-08-12T04:01:08.519Z,15.77
2022-08-12T04:03:55.805Z,15.75
2022-08-12T04:06:47.577Z,15.72
2022-08-12T04:09:36.296Z,15.71
2022-08-12T04:12:45.706Z,15.71
2022-08-12T04:15:33.553Z,15.74
2022-08-12T04:18:21.350Z,15.74
2022-08-12T04:21:11.181Z,15.74
2022-08-12T04:23:58.730Z,15.76
2022-08-12T04:26:45.915Z,15.82
2022-08-12T04:30:32.063Z,15.77
2022-08-12T04:32:44.396Z,15.77
2022-08-12T04:35:31.729Z,15.81
2022-08-12T04:38:20.049Z,15.85
2022-08-12T04:41:07.522Z,15.88
2022-08-12T04:44:02.272Z,15.91
2022-08-12T04:46:49.498Z,15.98
2022-08-12T04:49:36.990Z,16.06
2022-08-12T04:52:24.603Z,15.99
2022-08-12T04:55:12.844Z,16.00
2022-08-12T04:58:00.313Z,16.02
2022-08-12T05:00:47.559Z,16.05
2022-08-12T05:03:46.655Z,16.08
2022-08-12T05:06:34.598Z,16.07
2022-08-12T05:09:21.966Z,16.03
2022-08-12T05:12:09.221Z,16.13
2022-08-12T05:14:56.214Z,16.11
2022-08-12T05:17:43.720Z,16.22
2022-08-12T05:20:30.916Z,16.28
2022-08-12T05:23:20.078Z,16.35
2022-08-12T05:26:07.498Z,16.42
2022-08-12T05:28:54.553Z,16.43
2022-08-12T05:31:48.434Z,16.53
2022-08-12T05:34:35.662Z,16.60
2022-08-12T05:37:23.710Z,16.63
2022-08-12T05:40:11.797Z,16.73
2022-08-12T05:42:58.937Z,16.80
2022-08-12T05:45:47.467Z,16.86
2022-08-12T05:48:34.786Z,17.02
2022-08-12T05:51:39.931Z,17.19
2022-08-12T05:54:47.662Z,17.37
2022-08-12T05:57:35.209Z,17.58
2022-08-12T06:00:25.841Z,17.76
2022-08-12T06:03:14.195Z,17.89
2022-08-12T06:06:01.285Z,18.09
2022-08-12T06:08:53.681Z,18.28
2022-08-12T06:11:54.026Z,18.46
2022-08-12T06:14:55.863Z,18.80
2022-08-12T06:17:43.771Z,18.87
2022-08-12T06:20:34.296Z,19.05
2022-08-12T06:23:21.472Z,19.33
2022-08-12T06:26:11.665Z,19.53
2022-08-12T06:29:00.859Z,19.63
2022-08-12T06:31:50.742Z,19.97
2022-08-12T06:35:26.065Z,20.15
2022-08-12T06:37:51.501Z,20.37
2022-08-12T06:41:05.411Z,20.47
2022-08-12T06:44:06.016Z,20.64
2022-08-12T06:46:55.092Z,20.86
2022-08-12T06:49:45.313Z,21.09
2022-08-12T06:52:32.446Z,21.37
2022-08-12T06:55:20.907Z,21.36
2022-08-12T06:58:10.445Z,21.52
2022-08-12T07:00:59.505Z,21.64
2022-08-12T07:03:47.230Z,21.85
2022-08-12T07:06:34.560Z,22.01
2022-08-12T07:10:06.907Z,22.27
2022-08-12T07:12:30.385Z,22.57
2022-08-12T07:15:20.410Z,22.63
2022-08-12T07:18:13.337Z,22.46
2022-08-12T07:21:04.154Z,22.81
2022-08-12T07:23:51.154Z,22.88
2022-08-12T07:26:44.310Z,23.12
2022-08-12T07:29:57.897Z,23.25
2022-08-12T07:32:38.724Z,23.43
2022-08-12T07:35:25.764Z,23.65
2022-08-12T07:38:42.368Z,24.06
2022-08-12T07:41:31.911Z,24.25
2022-08-12T07:44:19.022Z,24.50
2022-08-12T07:47:08.107Z,24.57
2022-08-12T07:50:05.745Z,24.67
2022-08-12T07:52:53.376Z,24.81
2022-08-12T07:55:40.433Z,24.95
2022-08-12T07:58:27.422Z,24.97
2022-08-12T08:01:17.613Z,25.01
2022-08-12T08:04:24.030Z,25.36
2022-08-12T08:07:11.542Z,25.62
2022-08-12T08:10:00.925Z,25.67
2022-08-12T08:12:53.848Z,25.69
2022-08-12T08:16:02.508Z,26.16
2022-08-12T08:18:49.655Z,26.30
2022-08-12T08:21:36.866Z,26.55
2022-08-12T08:24:27.006Z,26.68
2022-08-12T08:27:14.013Z,26.62
2022-08-12T08:30:02.501Z,26.95
2022-08-12T08:32:49.930Z,27.28
2022-08-12T08:35:46.254Z,27.30
2022-08-12T08:38:35.465Z,27.69
2022-08-12T08:42:16.578Z,27.54
2022-08-12T08:44:53.964Z,27.61
2022-08-12T08:47:46.394Z,28.04
2022-08-12T08:50:33.599Z,28.27
2022-08-12T08:53:20.691Z,28.39
2022-08-12T08:56:11.083Z,28.56
2022-08-12T08:59:00.238Z,28.80
2022-08-12T09:01:47.994Z,28.69
2022-08-12T09:05:12.171Z,28.83
2022-08-12T09:14:11.530Z,29.62
2022-08-12T09:16:59.754Z,29.14
2022-08-12T09:19:46.966Z,29.46
2022-08-12T09:22:35.131Z,29.55
2022-08-12T09:25:26.389Z,29.54
2022-08-12T09:28:30.883Z,29.61
2022-08-12T09:32:08.006Z,29.84
2022-08-12T09:34:33.617Z,30.26
2022-08-12T09:37:28.387Z,30.51
2022-08-12T09:40:57.533Z,30.42
2022-08-12T09:44:05.435Z,30.58
2022-08-12T09:46:52.714Z,31.17
2022-08-12T09:49:42.521Z,31.09
2022-08-12T09:52:32.160Z,30.90
2022-08-12T09:56:05.799Z,31.18
2022-08-12T09:58:57.354Z,30.88
2022-08-12T10:02:42.704Z,31.28
2022-08-12T10:04:51.562Z,31.01
2022-08-12T10:07:40.685Z,31.50
2022-08-12T10:10:30.159Z,31.86
2022-08-12T10:13:41.816Z,31.36
2022-08-12T10:16:36.811Z,31.52
2022-08-12T10:19:36.773Z,31.62
2022-08-12T10:22:39.215Z,31.52
2022-08-12T10:26:18.346Z,31.58
2022-08-12T10:29:15.760Z,31.44
2022-08-12T10:32:44.654Z,31.86
2022-08-12T10:35:38.268Z,31.44
2022-08-12T10:38:34.992Z,31.46
2022-08-12T10:41:57.893Z,31.78
2022-08-12T10:44:46.918Z,32.16
2022-08-12T10:48:19.898Z,31.82
2022-08-12T10:51:01.998Z,31.88
2022-08-12T10:53:52.737Z,32.04
2022-08-12T10:56:40.630Z,32.21
2022-08-12T11:00:35.980Z,31.75
2022-08-12T11:04:27.480Z,31.46
2022-08-12T11:07:06.727Z,31.56
2022-08-12T11:09:07.229Z,31.34
2022-08-12T11:12:34.838Z,31.85
2022-08-12T11:15:19.219Z,32.10
2022-08-12T11:18:18.538Z,31.59
2022-08-12T11:21:06.318Z,31.96
2022-08-12T11:23:53.531Z,32.27
2022-08-12T11:26:41.013Z,32.63
2022-08-12T11:30:02.581Z,33.03
2022-08-12T11:32:39.024Z,32.33
2022-08-12T11:35:29.528Z,33.11
2022-08-12T11:38:20.289Z,33.03
2022-08-12T11:41:07.557Z,32.94
2022-08-12T11:43:58.312Z,32.51
2022-08-12T11:46:45.876Z,32.96
2022-08-12T11:49:38.560Z,33.27
2022-08-12T11:52:54.953Z,32.99
2022-08-12T11:55:33.157Z,32.90
2022-08-12T11:59:27.529Z,32.21
2022-08-12T12:02:02.556Z,32.33
2022-08-12T12:04:35.041Z,32.30
2022-08-12T12:07:33.711Z,32.49
2022-08-12T12:10:29.866Z,32.68
2022-08-12T12:14:05.362Z,32.76
2022-08-12T12:16:24.781Z,32.61
2022-08-12T12:19:11.825Z,32.86
2022-08-12T12:21:58.805Z,32.64
2022-08-12T12:24:50.886Z,33.07
2022-08-12T12:28:05.375Z,32.99
2022-08-12T12:30:54.492Z,33.27
2022-08-12T12:33:56.854Z,33.20
2022-08-12T12:36:48.978Z,33.13
2022-08-12T12:39:54.678Z,33.26
2022-08-12T12:42:55.832Z,32.88
2022-08-12T12:45:47.432Z,32.54
2022-08-12T12:48:34.376Z,32.39
2022-08-12T12:51:22.226Z,32.84
2022-08-12T12:54:29.149Z,32.65
2022-08-12T12:57:16.820Z,32.56
2022-08-12T13:00:15.434Z,32.76
2022-08-12T13:03:02.498Z,32.76
2022-08-12T13:05:53.731Z,32.47
2022-08-12T13:08:41.009Z,32.76
2022-08-12T13:11:42.261Z,32.90
2022-08-12T13:14:35.182Z,32.31
2022-08-12T13:17:26.596Z,32.52
2022-08-12T13:20:37.872Z,32.87
2022-08-12T13:23:35.897Z,33.11
2022-08-12T13:26:23.572Z,32.70
2022-08-12T13:29:13.022Z,32.83
2022-08-12T13:32:18.675Z,32.77
2022-08-12T13:35:19.999Z,32.42
2022-08-12T13:38:26.869Z,32.55
2022-08-12T13:41:34.346Z,32.65
2022-08-12T13:44:22.821Z,33.09
2022-08-12T13:47:12.383Z,32.95
2022-08-12T13:50:09.467Z,32.64
2022-08-12T13:52:57.178Z,33.02
2022-08-12T13:55:46.203Z,33.03
2022-08-12T13:58:37.437Z,32.83
2022-08-12T14:01:24.402Z,33.04
2022-08-12T14:04:12.392Z,32.84
2022-08-12T14:07:02.913Z,32.69
2022-08-12T14:10:09.246Z,32.38
2022-08-12T14:12:57.819Z,32.12
2022-08-12T14:15:53.052Z,32.26
2022-08-12T14:18:42.211Z,32.65
2022-08-12T14:21:30.106Z,32.95
2022-08-12T14:24:40.464Z,32.81
2022-08-12T14:28:02.622Z,32.52
2022-08-12T14:30:36.445Z,31.94
2022-08-12T14:33:25.213Z,32.16
2022-08-12T14:36:12.834Z,32.66
2022-08-12T14:39:00.171Z,32.04
2022-08-12T14:41:57.150Z,32.60
2022-08-12T14:44:57.505Z,32.06
2022-08-12T14:47:53.719Z,32.59
2022-08-12T14:51:03.139Z,32.70
2022-08-12T14:55:50.775Z,32.70
2022-08-12T14:57:20.691Z,33.08
2022-08-12T15:00:30.224Z,32.71
2022-08-12T15:03:17.358Z,32.87
2022-08-12T15:06:44.490Z,32.52
2022-08-12T15:09:16.392Z,32.74
2022-08-12T15:12:04.434Z,32.92
2022-08-12T15:14:53.847Z,32.76
2022-08-12T15:17:40.935Z,32.36
2022-08-12T15:20:32.978Z,32.50
2022-08-12T15:23:29.304Z,32.82
2022-08-12T15:26:21.252Z,32.49
2022-08-12T15:29:16.951Z,32.24
2022-08-12T15:32:10.651Z,31.92
2022-08-12T15:34:58.467Z,32.25
2022-08-12T15:38:10.519Z,31.70
2022-08-12T15:40:53.377Z,32.01
2022-08-12T15:44:16.925Z,32.47
2022-08-12T15:46:48.070Z,32.01
2022-08-12T15:49:43.050Z,32.30
2022-08-12T15:52:42.257Z,32.42
2022-08-12T15:55:33.809Z,32.35
2022-08-12T15:58:21.893Z,32.40
2022-08-12T16:01:15.065Z,32.23
2022-08-12T16:04:02.171Z,32.01
2022-08-12T16:07:05.802Z,32.48
2022-08-12T16:10:06.647Z,32.15
2022-08-12T16:12:57.838Z,32.43
2022-08-12T16:15:51.126Z,32.52
2022-08-12T16:18:49.978Z,32.40
2022-08-12T16:21:52.095Z,32.14
2022-08-12T16:24:48.001Z,32.49
2022-08-12T16:27:41.887Z,32.73
2022-08-12T16:30:34.241Z,32.83
2022-08-12T16:33:58.840Z,32.77
2022-08-12T16:36:46.002Z,33.14
2022-08-12T16:39:57.339Z,33.30
2022-08-12T16:42:53.940Z,32.98
2022-08-12T16:46:23.445Z,32.98
2022-08-12T16:48:56.365Z,32.35
2022-08-12T16:51:45.987Z,31.89
2022-08-12T16:54:36.331Z,31.60
2022-08-12T16:57:35.129Z,30.92
2022-08-12T17:00:24.150Z,30.58
2022-08-12T17:03:12.779Z,30.24
2022-08-12T17:06:19.728Z,30.26
2022-08-12T17:09:17.294Z,30.20
2022-08-12T17:12:05.587Z,30.10
2022-08-12T17:14:53.028Z,30.29
2022-08-12T17:17:42.144Z,30.56
2022-08-12T17:20:37.441Z,30.60
2022-08-12T17:23:28.594Z,30.35
2022-08-12T17:26:37.234Z,29.69
2022-08-12T17:30:00.348Z,29.42
2022-08-12T17:32:35.919Z,29.51
2022-08-12T17:35:37.543Z,29.08
2022-08-12T17:38:30.591Z,29.06
2022-08-12T17:41:22.431Z,28.78
2022-08-12T17:44:10.450Z,28.69
2022-08-12T17:47:01.233Z,28.45
2022-08-12T17:50:02.375Z,28.35
2022-08-12T17:52:51.937Z,28.21
2022-08-12T17:55:48.194Z,28.06
2022-08-12T17:58:38.143Z,27.87
2022-08-12T18:01:25.602Z,27.94
2022-08-12T18:04:22.194Z,27.74
2022-08-12T18:07:23.713Z,27.51
2022-08-12T18:10:35.914Z,27.30
2022-08-12T18:13:40.307Z,27.19
2022-08-12T18:16:29.570Z,27.05
2022-08-12T18:19:17.622Z,27.01
2022-08-12T18:22:05.412Z,26.72
2022-08-12T18:25:02.401Z,26.55
2022-08-12T18:28:16.205Z,26.34
2022-08-12T18:31:03.388Z,26.06
2022-08-12T18:33:52.452Z,26.06
2022-08-12T18:36:40.841Z,25.85
2022-08-12T18:39:57.758Z,25.71
2022-08-12T18:42:54.408Z,25.53
2022-08-12T18:45:47.163Z,25.39
2022-08-12T18:48:44.350Z,25.25
2022-08-12T18:51:34.155Z,25.13
2022-08-12T18:54:36.245Z,24.94
2022-08-12T18:58:06.118Z,24.81
2022-08-12T19:00:34.252Z,24.62
2022-08-12T19:03:39.143Z,24.44
2022-08-12T19:06:35.683Z,24.26
2022-08-12T19:09:57.465Z,24.16
2022-08-12T19:13:03.268Z,24.00
2022-08-12T19:15:57.402Z,23.87
2022-08-12T19:18:46.415Z,23.78
2022-08-12T19:21:39.405Z,23.62
2022-08-12T19:24:46.581Z,23.47
2022-08-12T19:27:34.602Z,23.30
2022-08-12T19:30:55.543Z,23.15
2022-08-12T19:33:52.103Z,22.99
2022-08-12T19:36:50.426Z,22.87
2022-08-12T19:40:08.669Z,22.78
2022-08-12T19:42:53.489Z,22.72
2022-08-12T19:45:48.888Z,22.66
2022-08-12T19:48:37.434Z,22.54
2022-08-12T19:51:35.874Z,22.46
2022-08-12T19:54:23.115Z,22.34
2022-08-12T19:57:18.858Z,22.26
2022-08-12T20:00:07.901Z,22.17
2022-08-12T20:03:00.432Z,22.13
2022-08-12T20:06:06.898Z,22.07
2022-08-12T20:08:57.294Z,22.02
2022-08-12T20:12:12.526Z,21.92
2022-08-12T20:14:53.418Z,21.83
2022-08-12T20:17:50.492Z,21.71
2022-08-12T20:20:39.042Z,21.64
2022-08-12T20:23:50.770Z,21.52
2022-08-12T20:26:41.827Z,21.43
2022-08-12T20:29:35.582Z,21.38
2022-08-12T20:32:29.418Z,21.32
2022-08-12T20:35:18.275Z,21.17
2022-08-12T20:38:26.612Z,21.11
2022-08-12T20:41:16.183Z,21.00
2022-08-12T20:44:03.633Z,20.96
2022-08-12T20:46:50.667Z,20.88
2022-08-12T20:49:42.081Z,20.85
2022-08-12T20:52:34.142Z,20.82
2022-08-12T20:55:22.218Z,20.74
2022-08-12T20:58:30.373Z,20.59
2022-08-12T21:01:23.835Z,20.58
2022-08-12T21:04:56.467Z,20.50
2022-08-12T21:07:51.643Z,20.40
2022-08-12T21:10:38.930Z,20.31
2022-08-12T21:13:29.596Z,20.27
2022-08-12T21:16:35.503Z,20.22
2022-08-12T21:19:52.091Z,20.13
2022-08-12T21:22:35.020Z,20.05
2022-08-12T21:25:25.582Z,20.01
2022-08-12T21:28:30.886Z,19.97
2022-08-12T21:32:36.761Z,19.92
2022-08-12T21:34:29.286Z,19.85
2022-08-12T21:37:27.311Z,19.77
2022-08-12T21:40:15.139Z,19.69
2022-08-12T21:43:04.354Z,19.60
2022-08-12T21:46:00.141Z,19.54
2022-08-12T21:48:49.259Z,19.45
2022-08-12T21:51:50.252Z,19.41
2022-08-12T21:54:42.664Z,19.36
2022-08-12T21:57:36.364Z,19.28
2022-08-12T22:00:40.174Z,19.19
2022-08-12T22:04:02.937Z,19.13
2022-08-12T22:06:55.786Z,19.06
2022-08-12T22:09:46.327Z,19.04
2022-08-12T22:12:34.782Z,19.00
2022-08-12T22:15:24.857Z,18.92
2022-08-12T22:18:13.030Z,18.93
2022-08-12T22:21:03.114Z,18.84
2022-08-12T22:24:04.067Z,18.86
2022-08-12T22:26:52.433Z,18.80
2022-08-12T22:29:57.710Z,18.74
2022-08-12T22:32:50.711Z,18.65
2022-08-12T22:35:55.844Z,18.60
2022-08-12T22:38:46.595Z,18.60
2022-08-12T22:41:57.004Z,18.59
2022-08-12T22:45:03.185Z,18.61
2022-08-12T22:47:55.672Z,18.54
2022-08-12T22:50:43.200Z,18.51
2022-08-12T22:53:36.208Z,18.53
2022-08-12T22:56:31.049Z,18.48
2022-08-12T22:59:18.549Z,18.45
2022-08-12T23:02:09.480Z,18.44
2022-08-12T23:04:58.750Z,18.43
2022-08-12T23:07:58.763Z,18.38
2022-08-12T23:10:47.667Z,18.36
2022-08-12T23:13:55.200Z,18.29
2022-08-12T23:16:43.191Z,18.25
2022-08-12T23:19:36.108Z,18.22
2022-08-12T23:23:05.899Z,18.07
2022-08-12T23:25:54.361Z,18.09
2022-08-12T23:28:59.428Z,18.03
2022-08-12T23:32:02.819Z,18.01
2022-08-12T23:34:50.961Z,17.95
2022-08-12T23:37:47.460Z,17.89
2022-08-12T23:40:40.693Z,17.87
2022-08-12T23:43:39.573Z,17.83
2022-08-12T23:46:27.995Z,17.75
2022-08-12T23:49:55.815Z,17.70
2022-08-12T23:52:21.977Z,17.70
2022-08-12T23:55:24.750Z,17.69
2022-08-12T23:58:22.497Z,17.66
